Time;durP1;ratioP1;P1;durP2;ratioP2;P2;SDS_P1;SDS_P2;PMS_P1;PMS_P2;Temp;Humidity;BMP_temperature;BMP_pressure;BME280_temperature;BME280_humidity;BME280_pressure;Samples;Min_cycle;Max_cycle;Signal;HPM_P1;HPM_P2
2022/02/16 00:00:40;;;;;;;40.25;19.40;;;256.30;2252.80;;;;;;5075347;28;20494;-74
2022/02/16 00:03:06;;;;;;;31.77;21.60;;;256.30;2252.80;;;;;;5075224;28;20027;-75
2022/02/16 00:05:35;;;;;;;28.23;18.90;;;256.20;2252.80;;;;;;5075397;28;20039;-75
2022/02/16 00:08:01;;;;;;;38.67;21.52;;;256.30;2252.80;;;;;;5075130;28;20013;-75
2022/02/16 00:10:27;;;;;;;44.25;21.77;;;256.20;2252.80;;;;;;5073935;28;20053;-75
2022/02/16 00:12:52;;;;;;;40.67;22.02;;;256.10;2252.80;;;;;;5074619;28;20444;-74
2022/02/16 00:15:18;;;;;;;42.22;23.90;;;256.10;2252.80;;;;;;5074027;28;20051;-74
2022/02/16 00:17:44;;;;;;;31.70;20.02;;;256.10;2252.80;;;;;;5074884;28;20043;-75
2022/02/16 00:20:11;;;;;;;31.13;20.65;;;256.00;2252.80;;;;;;5073645;28;20059;-74
2022/02/16 00:22:37;;;;;;;36.40;21.17;;;256.00;2252.80;;;;;;5073698;28;20375;-75
2022/02/16 00:25:03;;;;;;;33.10;21.80;;;256.10;2252.80;;;;;;5074402;28;20373;-75
2022/02/16 00:27:29;;;;;;;28.50;18.42;;;256.00;2252.80;;;;;;5072811;28;20093;-75
2022/02/16 00:29:55;;;;;;;26.58;16.95;;;256.10;2252.80;;;;;;5072609;28;20504;-74
2022/02/16 00:32:22;;;;;;;26.95;18.13;;;256.10;2252.80;;;;;;5074903;28;20044;-74
2022/02/16 00:34:48;;;;;;;28.40;17.67;;;256.10;2252.80;;;;;;5074910;28;20382;-74
2022/02/16 00:37:15;;;;;;;29.33;18.50;;;256.10;2252.80;;;;;;5074668;28;20036;-74
2022/02/16 00:39:41;;;;;;;29.20;17.92;;;256.20;2252.80;;;;;;5073265;28;20141;-74
2022/02/16 00:42:07;;;;;;;21.98;15.90;;;256.20;2252.80;;;;;;5073409;28;20199;-74
2022/02/16 00:44:33;;;;;;;24.42;16.63;;;256.20;2252.80;;;;;;5072954;28;20032;-74
2022/02/16 00:46:58;;;;;;;25.17;16.17;;;256.30;2252.80;;;;;;5073293;28;20028;-74
2022/02/16 00:49:24;;;;;;;23.83;16.65;;;256.20;2252.80;;;;;;5073482;28;20111;-75
2022/02/16 00:51:50;;;;;;;30.00;17.75;;;256.20;2252.80;;;;;;5073174;28;20021;-74
2022/02/16 00:54:15;;;;;;;25.73;17.65;;;256.20;2252.80;;;;;;5074519;28;20025;-75
2022/02/16 00:56:41;;;;;;;25.42;18.67;;;256.30;2252.80;;;;;;5074305;28;20036;-74
2022/02/16 00:59:09;;;;;;;24.42;15.82;;;256.30;2252.80;;;;;;5073626;28;20032;-74
2022/02/16 01:01:35;;;;;;;24.85;17.52;;;256.20;2252.80;;;;;;5073905;28;20360;-75
2022/02/16 01:04:00;;;;;;;24.55;17.40;;;256.30;2252.80;;;;;;5072746;28;20085;-75
2022/02/16 01:06:26;;;;;;;27.42;17.33;;;256.30;2252.80;;;;;;5072969;28;20023;-75
2022/02/16 01:08:52;;;;;;;26.15;16.05;;;256.30;2252.80;;;;;;5073093;28;20360;-74
2022/02/16 01:11:21;;;;;;;28.45;17.33;;;256.30;2252.80;;;;;;5072651;28;20499;-74
2022/02/16 01:13:47;;;;;;;27.10;18.48;;;256.40;2252.80;;;;;;5072091;28;20028;-73
2022/02/16 01:16:13;;;;;;;24.90;17.75;;;256.40;2252.80;;;;;;5072804;28;20037;-74
2022/02/16 01:18:38;;;;;;;29.52;17.98;;;256.40;2252.80;;;;;;5073257;28;20029;-74
2022/02/16 01:21:04;;;;;;;23.20;16.92;;;256.40;2252.80;;;;;;5072250;28;20020;-74
2022/02/16 01:23:30;;;;;;;25.08;17.20;;;256.40;2252.80;;;;;;5072024;28;20142;-74
2022/02/16 01:25:55;;;;;;;23.52;15.73;;;256.40;2252.80;;;;;;5071715;28;20041;-74
2022/02/16 01:28:21;;;;;;;27.70;16.23;;;256.40;2252.80;;;;;;5072325;28;20055;-74
2022/02/16 01:30:48;;;;;;;24.85;14.60;;;256.30;2252.80;;;;;;5072521;28;20372;-74
2022/02/16 01:33:14;;;;;;;23.58;16.27;;;256.30;2252.80;;;;;;5072910;28;20020;-74
2022/02/16 01:35:40;;;;;;;25.23;15.70;;;256.30;2252.80;;;;;;5073739;28;20392;-74
2022/02/16 01:38:06;;;;;;;21.27;14.48;;;256.30;2252.80;;;;;;5073419;28;20082;-74
2022/02/16 01:40:31;;;;;;;25.50;15.80;;;256.30;2252.80;;;;;;5073350;28;20035;-74
2022/02/16 01:42:57;;;;;;;27.27;16.15;;;256.30;2252.80;;;;;;5073413;28;20029;-74
2022/02/16 01:45:25;;;;;;;19.85;15.30;;;256.30;2252.80;;;;;;5073235;28;20025;-75
2022/02/16 01:47:51;;;;;;;25.58;17.15;;;256.20;2252.80;;;;;;5073444;28;20025;-74
2022/02/16 01:50:17;;;;;;;21.05;14.80;;;256.30;2252.80;;;;;;5072878;28;20024;-75
2022/02/16 01:52:42;;;;;;;26.30;16.40;;;256.20;2252.80;;;;;;5071450;28;20479;-74
2022/02/16 01:55:10;;;;;;;23.70;15.40;;;256.10;2252.80;;;;;;5071750;28;20029;-74
2022/02/16 01:57:38;;;;;;;21.77;14.52;;;256.10;2252.80;;;;;;5071892;28;20117;-74
2022/02/16 02:00:05;;;;;;;27.48;16.60;;;256.10;2252.80;;;;;;5072937;28;20032;-74
2022/02/16 02:02:30;;;;;;;32.05;19.73;;;256.20;2252.80;;;;;;5072976;28;20024;-74
2022/02/16 02:04:56;;;;;;;31.17;19.88;;;256.10;2252.80;;;;;;5073064;28;20384;-74
2022/02/16 02:07:22;;;;;;;26.38;18.15;;;256.10;2252.80;;;;;;5072865;28;20094;-74
2022/02/16 02:09:48;;;;;;;28.73;17.35;;;256.10;2252.80;;;;;;5073168;28;20446;-75
2022/02/16 02:12:14;;;;;;;26.05;16.95;;;256.10;2252.80;;;;;;5072587;28;20036;-74
2022/02/16 02:14:41;;;;;;;25.60;17.77;;;256.00;2252.80;;;;;;5072908;28;20021;-74
2022/02/16 02:17:07;;;;;;;35.45;18.48;;;231.30;2252.80;;;;;;5072264;28;20033;-74
2022/02/16 02:19:32;;;;;;;31.92;21.08;;;231.30;2252.80;;;;;;5070849;28;20471;-74
2022/02/16 02:22:00;;;;;;;37.92;21.40;;;231.20;2252.80;;;;;;5071316;28;20056;-74
2022/02/16 02:24:26;;;;;;;32.47;21.73;;;231.20;2252.80;;;;;;5072685;28;20096;-74
2022/02/16 02:26:52;;;;;;;30.85;17.92;;;231.10;2252.80;;;;;;5072598;28;20056;-74
2022/02/16 02:29:17;;;;;;;26.98;19.23;;;231.00;2252.80;;;;;;5070776;28;20101;-74
2022/02/16 02:31:43;;;;;;;32.60;20.73;;;231.10;2252.80;;;;;;5088294;28;20028;-74
2022/02/16 02:34:09;;;;;;;28.40;19.45;;;231.10;2252.80;;;;;;5071158;28;20115;-74
2022/02/16 02:36:35;;;;;;;29.48;20.25;;;231.00;2252.80;;;;;;5072633;28;20031;-74
2022/02/16 02:39:01;;;;;;;31.83;20.17;;;231.00;2252.80;;;;;;5071127;28;20032;-74
2022/02/16 02:41:27;;;;;;;30.90;19.27;;;231.00;2252.80;;;;;;5072649;28;20467;-74
2022/02/16 02:43:52;;;;;;;27.75;19.38;;;231.00;2252.80;;;;;;5072280;28;20024;-74
2022/02/16 02:46:19;;;;;;;30.00;19.20;;;231.00;2252.80;;;;;;5071568;28;20107;-73
2022/02/16 02:48:45;;;;;;;30.10;20.20;;;231.10;2252.80;;;;;;5070990;28;20074;-74
2022/02/16 02:51:11;;;;;;;33.65;20.38;;;231.00;2252.80;;;;;;5070945;28;20028;-74
2022/02/16 02:53:41;;;;;;;32.22;20.35;;;231.10;2252.80;;;;;;5072279;28;20115;-74
2022/02/16 02:56:06;;;;;;;29.83;20.30;;;231.10;2252.80;;;;;;5070912;28;20042;-74
2022/02/16 02:58:32;;;;;;;31.08;20.85;;;231.20;2252.80;;;;;;5072306;28;20032;-74
2022/02/16 03:01:01;;;;;;;27.25;19.63;;;231.20;2252.80;;;;;;5071958;28;20082;-73
2022/02/16 03:03:26;;;;;;;29.88;19.23;;;231.20;2252.80;;;;;;5071049;28;20115;-74
2022/02/16 03:05:52;;;;;;;32.75;22.75;;;231.20;2252.80;;;;;;5071005;28;20107;-74
2022/02/16 03:08:18;;;;;;;36.33;21.73;;;231.20;2252.80;;;;;;5071217;28;20032;-75
2022/02/16 03:10:44;;;;;;;31.50;20.42;;;231.20;2252.80;;;;;;5070868;28;20365;-74
2022/02/16 03:13:19;;;;;;;31.15;20.35;;;231.10;2252.80;;;;;;5072202;28;20036;-75
2022/02/16 03:15:49;;;;;;;30.20;19.95;;;231.10;2252.80;;;;;;5071964;28;20426;-75
2022/02/16 03:18:15;;;;;;;34.28;20.85;;;231.00;2252.80;;;;;;5070437;28;20056;-74
2022/02/16 03:20:42;;;;;;;32.85;21.80;;;231.00;2252.80;;;;;;5072145;28;20017;-75
2022/02/16 03:23:08;;;;;;;31.17;20.85;;;231.00;2252.80;;;;;;5072057;28;20025;-75
2022/02/16 03:25:34;;;;;;;31.15;20.60;;;231.00;2252.80;;;;;;5070770;28;20040;-75
2022/02/16 03:28:00;;;;;;;33.15;22.88;;;231.10;2252.80;;;;;;5070559;28;20025;-74
2022/02/16 03:30:26;;;;;;;56.95;34.42;;;231.10;2252.80;;;;;;5072207;28;20017;-75
2022/02/16 03:32:51;;;;;;;51.33;33.92;;;231.10;2252.80;;;;;;5072011;28;20093;-75
2022/02/16 03:35:17;;;;;;;56.00;36.35;;;231.10;2252.80;;;;;;5071994;28;20020;-74
2022/02/16 03:37:43;;;;;;;57.05;40.03;;;231.00;2252.80;;;;;;5071795;28;20020;-74
2022/02/16 03:40:09;;;;;;;72.22;43.00;;;231.00;2252.80;;;;;;5071799;28;20024;-74
2022/02/16 03:42:34;;;;;;;77.63;51.45;;;231.00;2252.80;;;;;;5071938;28;20467;-74
2022/02/16 03:45:00;;;;;;;77.35;49.38;;;231.00;2252.80;;;;;;5071689;28;20031;-75
2022/02/16 03:47:26;;;;;;;76.63;48.83;;;231.00;2252.80;;;;;;5071959;28;20032;-74
2022/02/16 03:49:52;;;;;;;65.50;41.92;;;231.00;2252.80;;;;;;5071787;28;20035;-74
2022/02/16 03:52:17;;;;;;;50.28;34.03;;;231.00;2252.80;;;;;;5071886;28;20031;-74
2022/02/16 03:54:43;;;;;;;43.33;30.20;;;231.00;2252.80;;;;;;5069751;28;20079;-74
2022/02/16 03:57:09;;;;;;;37.40;25.42;;;231.00;2252.80;;;;;;5072848;28;20119;-74
2022/02/16 03:59:34;;;;;;;33.10;22.13;;;231.00;2252.80;;;;;;5075106;28;20075;-74
2022/02/16 04:02:02;;;;;;;37.55;25.02;;;231.00;2252.80;;;;;;5075540;28;20017;-74
2022/02/16 04:04:29;;;;;;;28.30;21.38;;;230.90;2252.80;;;;;;5074009;28;20027;-74
2022/02/16 04:06:55;;;;;;;32.67;20.70;;;230.90;2252.80;;;;;;5074174;28;20487;-74
2022/02/16 04:09:20;;;;;;;32.85;21.20;;;230.90;2252.80;;;;;;5074053;28;20059;-74
2022/02/16 04:11:46;;;;;;;34.03;22.45;;;230.80;2124.80;;;;;;5075079;28;20506;-74
2022/02/16 04:14:12;;;;;;;34.38;22.88;;;230.80;2252.80;;;;;;5075020;28;20039;-74
2022/02/16 04:16:38;;;;;;;32.30;21.27;;;230.70;2252.80;;;;;;5074513;28;20099;-74
2022/02/16 04:19:04;;;;;;;42.40;24.13;;;230.70;2252.80;;;;;;5073670;28;20457;-74
2022/02/16 04:21:29;;;;;;;30.13;22.60;;;230.70;2252.80;;;;;;5073626;28;20020;-73
2022/02/16 04:23:55;;;;;;;36.22;23.13;;;230.80;2252.80;;;;;;5075169;28;20050;-74
2022/02/16 04:26:21;;;;;;;35.38;23.98;;;230.80;2252.80;;;;;;5074678;28;20107;-74
2022/02/16 04:28:47;;;;;;;34.42;22.73;;;230.80;2252.80;;;;;;5074680;28;20037;-75
2022/02/16 04:31:12;;;;;;;33.78;22.95;;;230.80;2252.80;;;;;;5074412;28;20028;-74
2022/02/16 04:33:38;;;;;;;30.20;23.08;;;230.80;2252.80;;;;;;5074341;28;20032;-74
2022/02/16 04:36:04;;;;;;;45.78;28.95;;;230.80;2252.80;;;;;;5072781;28;20040;-74
2022/02/16 04:38:30;;;;;;;42.67;27.50;;;230.70;2252.80;;;;;;5073891;28;20024;-74
2022/02/16 04:40:56;;;;;;;35.83;24.73;;;230.60;2252.80;;;;;;5072897;28;20033;-74
2022/02/16 04:43:22;;;;;;;42.95;27.65;;;230.70;2252.80;;;;;;5073938;28;20077;-74
2022/02/16 04:45:47;;;;;;;39.10;25.65;;;230.70;2252.80;;;;;;5074501;28;20430;-74
2022/02/16 04:48:13;;;;;;;43.13;27.30;;;230.60;2252.80;;;;;;5074466;28;20540;-74
2022/02/16 04:50:39;;;;;;;35.78;23.83;;;230.70;2252.80;;;;;;5074427;28;20077;-74
2022/02/16 04:53:05;;;;;;;36.22;27.05;;;230.70;2252.80;;;;;;5073169;28;20443;-74
2022/02/16 04:55:30;;;;;;;41.63;26.48;;;230.80;2252.80;;;;;;5074392;28;20380;-75
2022/02/16 04:57:56;;;;;;;37.08;27.27;;;230.70;2252.80;;;;;;5072158;28;20391;-74
2022/02/16 05:00:24;;;;;;;43.20;28.10;;;230.80;2252.80;;;;;;5074318;28;20115;-74
2022/02/16 05:02:50;;;;;;;50.80;31.98;;;230.70;2252.80;;;;;;5072934;28;20024;-74
2022/02/16 05:05:16;;;;;;;40.20;29.85;;;230.70;2252.80;;;;;;5072818;28;20495;-74
2022/02/16 05:07:41;;;;;;;47.72;29.38;;;230.60;2252.80;;;;;;5073339;28;20133;-74
2022/02/16 05:10:08;;;;;;;41.40;29.08;;;230.60;2252.80;;;;;;5072745;28;20032;-73
2022/02/16 05:12:35;;;;;;;53.10;34.35;;;230.60;2252.80;;;;;;5074277;28;20097;-74
2022/02/16 05:15:04;;;;;;;43.13;32.13;;;230.50;2252.80;;;;;;5072566;28;20103;-74
2022/02/16 05:17:30;;;;;;;47.00;31.05;;;230.60;2252.80;;;;;;5072801;28;20502;-73
2022/02/16 05:19:56;;;;;;;45.20;32.50;;;230.40;2252.80;;;;;;5072432;28;20028;-74
2022/02/16 05:22:22;;;;;;;61.15;38.88;;;230.40;2252.80;;;;;;5073889;28;20054;-74
2022/02/16 05:24:48;;;;;;;71.20;47.53;;;230.40;2252.80;;;;;;5073429;28;20028;-74
2022/02/16 05:27:14;;;;;;;57.25;36.83;;;205.70;2252.80;;;;;;5073804;28;20475;-74
2022/02/16 05:29:40;;;;;;;42.55;29.15;;;205.70;2252.80;;;;;;5072597;28;20479;-74
2022/02/16 05:32:07;;;;;;;41.92;28.63;;;205.70;2252.80;;;;;;5072152;28;20032;-74
2022/02/16 05:34:32;;;;;;;44.15;28.70;;;205.70;2252.80;;;;;;5073715;28;20056;-74
2022/02/16 05:36:58;;;;;;;42.35;29.58;;;205.70;2252.80;;;;;;5072315;28;20105;-74
2022/02/16 05:39:24;;;;;;;36.22;24.85;;;205.70;2252.80;;;;;;5073665;28;20027;-74
2022/02/16 05:41:51;;;;;;;41.00;27.67;;;230.40;2252.80;;;;;;5072090;28;20028;-74
2022/02/16 05:44:17;;;;;;;43.17;26.70;;;230.40;2252.80;;;;;;5073448;28;20044;-75
2022/02/16 05:46:42;;;;;;;41.67;27.30;;;230.40;2252.80;;;;;;5072400;28;20067;-73
2022/02/16 05:49:08;;;;;;;46.35;28.83;;;230.40;2252.80;;;;;;5072207;28;20085;-73
2022/02/16 05:51:37;;;;;;;38.30;27.83;;;230.40;2252.80;;;;;;5071545;28;20048;-73
2022/02/16 05:54:03;;;;;;;48.40;26.48;;;230.40;2252.80;;;;;;5073036;28;20085;-74
2022/02/16 05:56:29;;;;;;;38.63;26.48;;;230.40;2252.80;;;;;;5071716;28;20045;-74
2022/02/16 05:58:55;;;;;;;40.35;27.02;;;230.40;2252.80;;;;;;5073165;28;20031;-73
2022/02/16 06:01:21;;;;;;;40.38;26.60;;;230.40;2252.80;;;;;;5071774;28;20099;-74
2022/02/16 06:03:47;;;;;;;40.90;27.55;;;230.40;2252.80;;;;;;5071338;28;20094;-74
2022/02/16 06:06:12;;;;;;;41.10;27.10;;;230.50;2252.80;;;;;;5073153;28;20082;-74
2022/02/16 06:08:38;;;;;;;37.38;27.02;;;230.50;2252.80;;;;;;5072811;28;20664;-74
2022/02/16 06:11:04;;;;;;;40.10;26.33;;;230.50;2252.80;;;;;;5073008;28;20052;-74
2022/02/16 06:13:30;;;;;;;39.85;26.52;;;230.60;2252.80;;;;;;5072714;28;20095;-74
2022/02/16 06:15:56;;;;;;;39.58;27.00;;;230.60;2252.80;;;;;;5072982;28;20021;-74
2022/02/16 06:18:22;;;;;;;35.40;25.15;;;230.60;2252.80;;;;;;5072156;28;20115;-74
2022/02/16 06:20:48;;;;;;;45.63;30.48;;;230.50;2252.80;;;;;;5072442;28;20066;-74
2022/02/16 06:23:13;;;;;;;48.25;31.85;;;230.50;2252.80;;;;;;5072716;28;20051;-74
2022/02/16 06:25:39;;;;;;;41.33;28.42;;;230.50;2252.80;;;;;;5070370;28;20094;-74
2022/02/16 06:28:05;;;;;;;41.78;27.65;;;230.50;2252.80;;;;;;5072226;28;20123;-74
2022/02/16 06:30:32;;;;;;;46.97;27.60;;;230.40;2252.80;;;;;;5071080;28;20540;-75
2022/02/16 06:32:59;;;;;;;40.65;25.80;;;230.40;2252.80;;;;;;5071044;28;20029;-74
2022/02/16 06:35:25;;;;;;;45.58;28.45;;;230.50;2252.80;;;;;;5072361;28;20024;-74
2022/02/16 06:37:50;;;;;;;44.33;28.80;;;230.40;2252.80;;;;;;5071244;28;20035;-74
2022/02/16 06:40:16;;;;;;;43.22;29.77;;;230.50;2252.80;;;;;;5072015;28;20090;-74
2022/02/16 06:42:42;;;;;;;39.42;28.27;;;230.60;2252.80;;;;;;5072269;28;20526;-74
2022/02/16 06:45:09;;;;;;;37.35;26.38;;;230.60;2252.80;;;;;;5072235;28;20056;-74
2022/02/16 06:47:36;;;;;;;43.42;30.73;;;230.60;2252.80;;;;;;5072096;28;20027;-74
2022/02/16 06:50:03;;;;;;;43.40;31.30;;;230.70;2252.80;;;;;;5072119;28;20032;-74
2022/02/16 06:52:28;;;;;;;47.78;31.67;;;230.80;2252.80;;;;;;5070646;28;20039;-74
2022/02/16 06:54:54;;;;;;;46.70;29.10;;;230.90;2252.80;;;;;;5070465;28;20033;-74
2022/02/16 06:57:20;;;;;;;39.25;26.65;;;231.00;2252.80;;;;;;5070885;28;20044;-75
2022/02/16 06:59:46;;;;;;;47.15;30.13;;;231.10;2252.80;;;;;;5070741;28;20025;-74
2022/02/16 07:02:12;;;;;;;60.30;40.22;;;231.10;2252.80;;;;;;5067161;28;20033;-74
2022/02/16 07:04:37;;;;;;;44.65;31.38;;;231.10;2252.80;;;;;;5052348;28;20021;-74
2022/02/16 07:07:04;;;;;;;46.60;31.13;;;231.10;2252.80;;;;;;5052143;28;20456;-75
2022/02/16 07:09:30;;;;;;;39.67;28.20;;;231.20;2252.80;;;;;;5051050;28;20472;-74
2022/02/16 07:11:56;;;;;;;52.80;34.58;;;231.20;2252.80;;;;;;5050753;28;20025;-74
2022/02/16 07:14:23;;;;;;;45.03;30.45;;;231.20;2252.80;;;;;;5057074;28;20382;-75
2022/02/16 07:16:49;;;;;;;45.70;30.40;;;231.20;2252.80;;;;;;5072201;28;20100;-74
2022/02/16 07:19:16;;;;;;;46.08;32.38;;;231.30;2252.80;;;;;;5070518;28;20119;-74
2022/02/16 07:21:42;;;;;;;38.45;27.58;;;256.00;2252.80;;;;;;5071610;28;20197;-74
2022/02/16 07:24:08;;;;;;;36.00;26.55;;;256.10;2252.80;;;;;;5071441;28;20032;-74
2022/02/16 07:26:34;;;;;;;37.70;26.05;;;256.10;2252.80;;;;;;5071303;28;20519;-75
2022/02/16 07:29:00;;;;;;;34.83;26.23;;;256.10;2252.80;;;;;;5071739;28;20383;-74
2022/02/16 07:31:26;;;;;;;38.35;26.55;;;256.20;2252.80;;;;;;5073296;28;20025;-74
2022/02/16 07:33:52;;;;;;;40.17;27.60;;;256.30;2252.80;;;;;;5075821;28;20056;-75
2022/02/16 07:36:18;;;;;;;39.78;25.95;;;256.20;2252.80;;;;;;5075921;28;20028;-73
2022/02/16 07:38:43;;;;;;;35.25;25.92;;;256.30;2252.80;;;;;;5074005;28;20373;-74
2022/02/16 07:41:09;;;;;;;44.92;27.95;;;256.30;2252.80;;;;;;5075244;28;20439;-74
2022/02/16 07:43:35;;;;;;;42.83;29.67;;;256.40;2252.80;;;;;;5074547;28;20032;-74
2022/02/16 07:46:01;;;;;;;44.13;27.10;;;256.50;2252.80;;;;;;5073729;28;20032;-74
2022/02/16 07:48:27;;;;;;;42.95;29.60;;;256.60;2201.60;;;;;;5067614;28;20039;-74
2022/02/16 07:50:53;;;;;;;61.35;38.17;;;256.80;1894.40;;;;;;5075189;28;20029;-74
2022/02/16 07:53:19;;;;;;;52.63;33.13;;;256.90;2252.80;;;;;;5072201;28;20031;-74
2022/02/16 07:55:45;;;;;;;68.38;39.35;;;281.70;2278.40;;;;;;5074634;28;20020;-74
2022/02/16 07:58:11;;;;;;;55.20;35.08;;;281.80;2278.40;;;;;;5074379;28;20039;-74
2022/02/16 08:00:37;;;;;;;45.17;29.70;;;281.80;2278.40;;;;;;5072517;28;20017;-74
2022/02/16 08:03:07;;;;;;;42.42;28.00;;;281.90;2278.40;;;;;;5072746;28;20553;-74
2022/02/16 08:05:34;;;;;;;42.65;29.10;;;282.10;2278.40;;;;;;5072110;28;20028;-75
2022/02/16 08:08:00;;;;;;;46.47;31.17;;;282.10;2278.40;;;;;;5074630;28;20753;-74
2022/02/16 08:10:26;;;;;;;55.08;34.72;;;282.10;2278.40;;;;;;5073977;28;20024;-74
2022/02/16 08:12:56;;;;;;;39.88;25.55;;;282.00;2278.40;;;;;;5073783;28;20115;-74
2022/02/16 08:15:23;;;;;;;45.15;28.60;;;282.10;2278.40;;;;;;5073935;28;20197;-74
2022/02/16 08:17:49;;;;;;;41.60;28.25;;;282.00;2278.40;;;;;;5073460;28;20035;-73
2022/02/16 08:20:15;;;;;;;44.17;27.58;;;282.10;2278.40;;;;;;5074732;28;20041;-73
2022/02/16 08:22:40;;;;;;;36.85;25.75;;;282.20;2278.40;;;;;;5074477;28;20421;-74
2022/02/16 08:25:07;;;;;;;39.45;26.63;;;282.10;2278.40;;;;;;5073186;28;20395;-74
2022/02/16 08:27:33;;;;;;;95.43;44.67;;;282.10;2278.40;;;;;;5074632;28;20028;-73
2022/02/16 08:29:59;;;;;;;38.58;27.58;;;282.10;2278.40;;;;;;5074471;28;20490;-74
2022/02/16 08:32:25;;;;;;;39.03;25.63;;;282.10;2278.40;;;;;;5074418;28;20037;-74
2022/02/16 08:34:51;;;;;;;38.17;25.23;;;282.10;2278.40;;;;;;5074051;28;20471;-74
2022/02/16 08:37:18;;;;;;;35.42;24.50;;;282.20;2278.40;;;;;;5074339;28;20119;-74
2022/02/16 08:39:44;;;;;;;41.92;27.08;;;282.10;2278.40;;;;;;5072738;28;20029;-74
2022/02/16 08:42:11;;;;;;;34.22;25.05;;;282.20;2278.40;;;;;;5072621;28;20024;-74
2022/02/16 08:44:37;;;;;;;34.50;23.42;;;282.10;2278.40;;;;;;5070297;28;20471;-74
2022/02/16 08:47:04;;;;;;;31.13;20.90;;;282.20;2278.40;;;;;;5074262;28;20047;-74
2022/02/16 08:49:30;;;;;;;34.00;21.45;;;282.30;2278.40;;;;;;5072039;28;20544;-74
2022/02/16 08:51:56;;;;;;;26.30;20.83;;;282.30;2278.40;;;;;;5072587;28;20115;-74
2022/02/16 08:54:21;;;;;;;26.35;19.60;;;282.30;2278.40;;;;;;5072402;28;20170;-74
2022/02/16 08:56:49;;;;;;;25.50;17.75;;;282.20;2278.40;;;;;;5073868;28;20032;-74
2022/02/16 08:59:16;;;;;;;25.00;18.23;;;282.30;2278.40;;;;;;5074440;28;20025;-74
2022/02/16 09:01:42;;;;;;;25.25;17.08;;;282.30;2278.40;;;;;;5072704;28;20021;-74
2022/02/16 09:04:08;;;;;;;24.38;17.50;;;282.40;2278.40;;;;;;5072981;28;20373;-74
2022/02/16 09:06:35;;;;;;;35.45;22.70;;;282.50;2278.40;;;;;;5073957;28;20130;-75
2022/02/16 09:09:02;;;;;;;34.38;22.88;;;282.30;2278.40;;;;;;5073060;28;20036;-74
2022/02/16 09:11:29;;;;;;;35.30;21.65;;;282.40;2278.40;;;;;;5072709;28;20047;-74
2022/02/16 09:13:56;;;;;;;23.25;17.95;;;282.50;2278.40;;;;;;5073532;28;20032;-74
2022/02/16 09:16:23;;;;;;;25.83;18.42;;;282.40;2278.40;;;;;;5072443;28;20028;-74
2022/02/16 09:18:49;;;;;;;25.70;18.50;;;282.30;2278.40;;;;;;5071747;28;20024;-73
2022/02/16 09:21:17;;;;;;;28.35;19.00;;;282.30;2278.40;;;;;;5073760;28;20361;-74
2022/02/16 09:23:43;;;;;;;28.48;19.58;;;282.30;2278.40;;;;;;5073241;28;20021;-74
2022/02/16 09:26:09;;;;;;;29.75;19.63;;;282.30;2278.40;;;;;;5072371;28;20048;-74
2022/02/16 09:28:36;;;;;;;33.60;22.00;;;307.20;2304.00;;;;;;5072123;28;20487;-74
2022/02/16 09:31:02;;;;;;;27.20;19.80;;;307.50;2304.00;;;;;;5072539;28;20051;-74
2022/02/16 09:33:29;;;;;;;26.58;19.30;;;307.90;2304.00;;;;;;5073447;28;20448;-74
2022/02/16 09:35:56;;;;;;;25.67;18.48;;;308.00;2304.00;;;;;;5073586;28;20047;-74
2022/02/16 09:38:22;;;;;;;25.05;18.40;;;308.00;2304.00;;;;;;5073116;28;20103;-74
2022/02/16 09:40:50;;;;;;;29.33;20.20;;;332.90;2329.60;;;;;;5073291;28;20024;-74
2022/02/16 09:43:19;;;;;;;30.95;21.75;;;333.10;2329.60;;;;;;5073359;28;20095;-74
2022/02/16 09:45:45;;;;;;;29.25;20.05;;;333.10;2329.60;;;;;;5071728;28;20024;-74
2022/02/16 09:48:11;;;;;;;29.92;21.40;;;333.10;2329.60;;;;;;5073347;28;20024;-74
2022/02/16 09:50:37;;;;;;;24.70;17.80;;;333.20;2329.60;;;;;;5072655;28;20029;-74
2022/02/16 09:53:03;;;;;;;28.08;19.13;;;333.10;2329.60;;;;;;5072109;28;20468;-74
2022/02/16 09:55:29;;;;;;;26.45;18.25;;;333.10;2329.60;;;;;;5070835;28;20391;-74
2022/02/16 09:57:55;;;;;;;23.08;17.45;;;333.30;2329.60;;;;;;5071412;28;20033;-74
2022/02/16 10:00:21;;;;;;;25.25;19.38;;;333.30;2329.60;;;;;;5072857;28;20032;-74
2022/02/16 10:02:47;;;;;;;27.65;18.17;;;333.30;2329.60;;;;;;5073120;28;20028;-74
2022/02/16 10:05:16;;;;;;;22.33;17.80;;;333.20;2329.60;;;;;;5071421;28;20078;-74
2022/02/16 10:07:44;;;;;;;28.58;20.25;;;333.10;2329.60;;;;;;5071362;28;20166;-74
2022/02/16 10:10:16;;;;;;;28.20;20.33;;;333.00;2329.60;;;;;;5073095;28;20157;-74
2022/02/16 10:12:44;;;;;;;25.33;17.80;;;333.10;2329.60;;;;;;5072711;28;20399;-74
2022/02/16 10:15:12;;;;;;;29.10;18.85;;;333.50;2329.60;;;;;;5073023;28;20383;-74
2022/02/16 10:17:38;;;;;;;22.08;17.17;;;333.50;2329.60;;;;;;5071327;28;20028;-74
2022/02/16 10:20:07;;;;;;;22.48;18.02;;;333.70;2329.60;;;;;;5071534;28;20086;-74
2022/02/16 10:22:41;;;;;;;25.90;18.33;;;358.60;2329.60;;;;;;5072776;28;20032;-73
2022/02/16 10:25:28;;;;;;;28.92;19.95;;;358.60;2329.60;;;;;;5070986;28;20053;-75
2022/02/16 10:28:12;;;;;;;24.92;18.00;;;358.80;2329.60;;;;;;5071815;28;20029;-74
2022/02/16 10:30:59;;;;;;;22.92;18.27;;;359.20;2329.60;;;;;;5069820;28;20032;-74
2022/02/16 10:33:29;;;;;;;25.35;18.33;;;359.30;2329.60;;;;;;5071281;28;20605;-74
2022/02/16 10:36:14;;;;;;;27.92;17.88;;;359.30;2329.60;;;;;;5071007;28;20024;-74
2022/02/16 10:39:11;;;;;;;34.40;18.75;;;359.10;2329.60;;;;;;5072402;28;20467;-74
2022/02/16 10:41:41;;;;;;;26.65;16.83;;;359.30;2329.60;;;;;;5071352;28;20027;-74
2022/02/16 10:44:21;;;;;;;20.92;15.18;;;359.30;2329.60;;;;;;5071062;28;20543;-74
2022/02/16 10:47:05;;;;;;;22.83;16.38;;;384.10;2329.60;;;;;;5070970;28;20032;-74
2022/02/16 10:49:33;;;;;;;24.10;17.55;;;384.40;2329.60;;;;;;5071611;28;20028;-74
2022/02/16 10:52:10;;;;;;;38.13;19.08;;;384.40;2329.60;;;;;;5071911;28;20048;-74
2022/02/16 10:54:36;;;;;;;21.17;16.95;;;409.60;2355.20;;;;;;5072437;28;20024;-74
2022/02/16 10:57:03;;;;;;;24.40;17.08;;;410.20;2355.20;;;;;;5070825;28;20115;-74
2022/02/16 10:59:29;;;;;;;20.73;15.13;;;410.20;2355.20;;;;;;5070890;28;20645;-74
2022/02/16 11:01:56;;;;;;;23.77;15.63;;;435.20;2355.20;;;;;;5070757;28;20387;-74
2022/02/16 11:04:26;;;;;;;21.88;16.08;;;435.40;2355.20;;;;;;5072209;28;20024;-74
2022/02/16 11:06:52;;;;;;;26.55;18.65;;;435.30;2355.20;;;;;;5071169;28;20025;-75
2022/02/16 11:09:22;;;;;;;25.17;18.50;;;409.90;2355.20;;;;;;5068846;28;20070;-74
2022/02/16 11:11:53;;;;;;;42.63;21.10;;;410.20;2355.20;;;;;;5071354;28;20074;-75
2022/02/16 11:14:23;;;;;;;26.10;16.63;;;410.40;2355.20;;;;;;5070333;28;20027;-74
2022/02/16 11:16:50;;;;;;;27.73;19.02;;;409.90;2355.20;;;;;;5069320;28;20107;-75
2022/02/16 11:19:21;;;;;;;22.08;15.90;;;409.80;2355.20;;;;;;5061054;28;20037;-75
2022/02/16 11:22:06;;;;;;;21.38;16.83;;;384.70;2329.60;;;;;;5051853;28;20045;-75
2022/02/16 11:24:53;;;;;;;17.60;11.82;;;384.50;2329.60;;;;;;5052040;28;20025;-75
2022/02/16 11:27:31;;;;;;;25.33;14.50;;;384.40;2329.60;;;;;;5051865;28;20037;-74
2022/02/16 11:30:00;;;;;;;19.02;13.10;;;384.50;2329.60;;;;;;5054372;28;20075;-75
2022/02/16 11:32:41;;;;;;;15.45;11.20;;;384.40;2329.60;;;;;;5070568;28;20483;-74
2022/02/16 11:35:16;;;;;;;13.80;10.40;;;384.60;2329.60;;;;;;5070805;28;20372;-74
2022/02/16 11:37:47;;;;;;;14.37;9.97;;;409.60;2355.20;;;;;;5070057;28;20131;-74
2022/02/16 11:40:14;;;;;;;14.68;10.32;;;435.70;2355.20;;;;;;5071909;28;20553;-74
2022/02/16 11:42:46;;;;;;;17.02;9.10;;;435.30;2355.20;;;;;;5071444;28;20472;-75
2022/02/16 11:45:14;;;;;;;12.45;9.45;;;410.20;2355.20;;;;;;5064982;28;20063;-74
2022/02/16 11:47:39;;;;;;;15.43;10.02;;;409.90;2355.20;;;;;;5070702;28;20025;-74
2022/02/16 11:50:17;;;;;;;17.25;10.00;;;409.60;2355.20;;;;;;5069539;28;20439;-74
2022/02/16 11:52:44;;;;;;;18.15;12.27;;;409.80;2355.20;;;;;;5058826;28;20496;-74
2022/02/16 11:55:26;;;;;;;14.70;10.95;;;410.10;2355.20;;;;;;5070990;28;20388;-74
2022/02/16 11:58:02;;;;;;;12.02;9.38;;;435.50;2355.20;;;;;;5070206;28;20113;-74